ROMMA est une association bénévole à but non lucratif. Votre soutien est indispensable : ADHERER à ROMMA ou FAIRE un DON

Chindrieux - (73, Savoie)

Chautagne (260 m)   Longitude: 05°50' E   Latitude: 45°49' N Station partenaire n°74
 

Détail journalier du     <<     >>

Température Precipitation Humidité Pression Vent Dir Rafale Dir. rafale Ensol.
Heure (°C) (mm) (%) (hPa) (km/h) (km/h) (min)
01:00 1.909210042N6NNE0
02:00 1.709210042NNE11ONO0
03:00 1.309310041SE8SE0
04:00 2.209410032SE18SE0
05:00 4.308310037NNO19NE0
06:00 4.107910039NNO21N0
07:00 4.2080100312NNO24NNO0
08:00 4.3079100310N24NNO0
09:00 4.307810038NNE23NNO0
10:00 4.9077100310NO23NO0
11:00 5.507410038NO24NNO0
12:00 6.607210035N21NNO0
13:00 8.306810036NNO19NNE60
14:00 9.206610029SSE21SE60
15:00 11.106310024S15O60
16:00 12.205610015S11SSO60
17:00 12.0054100011NNO23N50
18:00 11.6056100012NNO21NNO20
19:00 12.1054100010NNO19NNO40
20:00 10.7058100010NNO19NNO40
21:00 8.906510013N13N0
22:00 7.607010022N5N0
23:00 7.307310022N15NNO0
minuit 6.207610022N5N0

Graphique du 05-04-2019

 

Serveur OMMA